createdAt,value
2022-08-22T00:00:13.633Z,20.60
2022-08-22T00:02:48.497Z,23.40
2022-08-22T00:02:55.135Z,21.30
2022-08-22T00:02:55.263Z,20.40
2022-08-22T00:03:08.535Z,22.50
2022-08-22T00:03:33.603Z,20.70
2022-08-22T00:07:24.133Z,20.70
2022-08-22T00:10:57.932Z,20.80
2022-08-22T00:14:19.981Z,20.90
2022-08-22T00:17:36.932Z,20.90
2022-08-22T00:20:46.880Z,20.60
2022-08-22T00:24:04.912Z,20.70
2022-08-22T00:27:13.038Z,20.70
2022-08-22T00:30:16.464Z,20.40
2022-08-22T00:33:38.951Z,20.30
2022-08-22T00:36:50.695Z,20.50
2022-08-22T00:40:28.857Z,20.40
2022-08-22T00:43:49.449Z,20.40
2022-08-22T00:46:57.806Z,20.40
2022-08-22T00:50:27.926Z,20.20
2022-08-22T00:53:42.314Z,19.90
2022-08-22T00:57:12.073Z,20.20
2022-08-22T01:00:22.935Z,20.20
2022-08-22T01:03:43.811Z,20.30
2022-08-22T01:06:48.893Z,20.40
2022-08-22T01:10:19.079Z,20.40
2022-08-22T01:13:39.842Z,20.50
2022-08-22T01:17:36.369Z,20.50
2022-08-22T01:20:50.175Z,20.50
2022-08-22T01:23:52.093Z,20.50
2022-08-22T01:27:17.616Z,20.60
2022-08-22T01:30:44.452Z,20.50
2022-08-22T01:34:17.630Z,20.60
2022-08-22T01:37:43.459Z,20.50
2022-08-22T01:41:03.989Z,20.50
2022-08-22T01:44:18.700Z,20.50
2022-08-22T01:47:26.581Z,20.70
2022-08-22T01:50:39.801Z,20.50
2022-08-22T01:53:50.699Z,20.60
2022-08-22T01:57:03.914Z,20.50
2022-08-22T02:00:17.723Z,20.60
2022-08-22T02:03:32.255Z,20.50
2022-08-22T02:06:44.845Z,20.60
2022-08-22T02:10:25.042Z,20.60
2022-08-22T02:13:44.134Z,20.60
2022-08-22T02:16:51.563Z,20.50
2022-08-22T02:20:24.481Z,20.40
2022-08-22T02:23:56.146Z,20.00
2022-08-22T02:27:20.191Z,19.60
2022-08-22T02:30:49.059Z,19.70
2022-08-22T02:33:58.663Z,19.50
2022-08-22T02:37:33.300Z,19.80
2022-08-22T02:40:38.918Z,19.80
2022-08-22T02:44:03.515Z,19.90
2022-08-22T02:47:24.086Z,19.70
2022-08-22T02:50:31.817Z,19.80
2022-08-22T02:53:33.756Z,19.80
2022-08-22T02:56:45.007Z,19.70
2022-08-22T03:00:04.723Z,19.50
2022-08-22T03:03:19.204Z,19.40
2022-08-22T03:06:44.616Z,19.60
2022-08-22T03:09:57.398Z,19.50
2022-08-22T03:13:16.894Z,19.50
2022-08-22T03:16:22.477Z,19.70
2022-08-22T03:19:44.385Z,19.90
2022-08-22T03:23:02.711Z,19.80
2022-08-22T03:26:22.767Z,19.50
2022-08-22T03:29:33.530Z,19.40
2022-08-22T03:32:57.949Z,19.50
2022-08-22T03:36:06.883Z,19.50
2022-08-22T03:39:22.529Z,19.60
2022-08-22T03:42:42.849Z,19.40
2022-08-22T03:45:54.757Z,19.50
2022-08-22T03:49:24.163Z,19.40
2022-08-22T03:52:41.247Z,19.10
2022-08-22T03:55:54.827Z,19.00
2022-08-22T03:59:15.705Z,19.10
2022-08-22T04:02:26.196Z,19.40
2022-08-22T04:05:55.951Z,19.30
2022-08-22T04:09:29.144Z,19.30
2022-08-22T04:12:43.104Z,19.00
2022-08-22T04:15:57.681Z,19.00
2022-08-22T04:19:28.917Z,18.90
2022-08-22T04:22:49.319Z,18.70
2022-08-22T04:25:57.636Z,18.40
2022-08-22T04:29:30.436Z,18.20
2022-08-22T04:32:44.371Z,18.40
2022-08-22T04:36:27.717Z,18.50
2022-08-22T04:39:51.862Z,18.50
2022-08-22T04:43:23.210Z,18.40
2022-08-22T04:46:36.823Z,18.40
2022-08-22T04:49:46.366Z,18.40
2022-08-22T04:53:12.539Z,18.40
2022-08-22T04:56:34.822Z,18.50
2022-08-22T04:59:37.186Z,18.40
2022-08-22T05:02:45.344Z,18.40
2022-08-22T05:05:55.868Z,18.50
2022-08-22T05:09:07.117Z,18.40
2022-08-22T05:12:15.288Z,18.70
2022-08-22T05:15:22.920Z,18.60
2022-08-22T05:18:35.617Z,18.70
2022-08-22T05:21:40.747Z,18.80
2022-08-22T05:24:48.215Z,19.00
2022-08-22T05:27:56.348Z,19.00
2022-08-22T05:30:59.713Z,19.10
2022-08-22T05:34:16.308Z,18.90
2022-08-22T05:37:24.774Z,19.00
2022-08-22T05:40:29.995Z,19.10
2022-08-22T05:43:39.000Z,19.20
2022-08-22T05:46:59.963Z,19.20
2022-08-22T05:50:07.132Z,19.20
2022-08-22T05:53:39.726Z,19.30
2022-08-22T05:56:48.205Z,19.40
2022-08-22T05:59:59.543Z,19.50
2022-08-22T06:03:26.852Z,19.70
2022-08-22T06:06:31.811Z,19.90
2022-08-22T06:09:48.920Z,20.00
2022-08-22T06:12:56.473Z,20.30
2022-08-22T06:16:36.319Z,20.80
2022-08-22T06:19:44.103Z,21.00
2022-08-22T06:22:52.880Z,21.40
2022-08-22T06:25:59.486Z,21.70
2022-08-22T06:29:02.653Z,22.10
2022-08-22T06:32:38.243Z,22.70
2022-08-22T06:35:47.831Z,22.80
2022-08-22T06:38:55.531Z,23.50
2022-08-22T06:42:16.329Z,23.70
2022-08-22T06:45:25.503Z,23.90
2022-08-22T06:48:28.218Z,24.10
2022-08-22T06:51:30.518Z,24.40
2022-08-22T06:54:36.650Z,24.70
2022-08-22T06:58:07.145Z,25.10
2022-08-22T07:01:23.387Z,25.70
2022-08-22T07:04:27.582Z,25.70
2022-08-22T07:07:30.035Z,26.30
2022-08-22T07:10:32.162Z,26.40
2022-08-22T07:13:37.323Z,27.00
2022-08-22T07:16:57.735Z,27.10
2022-08-22T07:20:21.193Z,27.40
2022-08-22T07:23:46.167Z,27.70
2022-08-22T07:27:22.531Z,28.00
2022-08-22T07:30:34.559Z,28.40
2022-08-22T07:33:43.393Z,28.40
2022-08-22T07:37:03.527Z,29.00
2022-08-22T07:40:14.809Z,29.10
2022-08-22T07:43:40.247Z,28.40
2022-08-22T07:46:49.554Z,28.90
2022-08-22T07:49:57.879Z,28.20
2022-08-22T07:53:21.697Z,28.00
2022-08-22T07:56:27.783Z,27.40
2022-08-22T07:59:31.429Z,27.30
2022-08-22T08:02:33.603Z,27.20
2022-08-22T08:05:38.197Z,26.90
2022-08-22T08:08:44.184Z,26.90
2022-08-22T08:11:49.265Z,26.50
2022-08-22T08:14:54.534Z,26.30
2022-08-22T08:18:01.829Z,27.90
2022-08-22T08:21:07.951Z,28.40
2022-08-22T08:24:15.815Z,28.60
2022-08-22T08:27:23.252Z,28.90
2022-08-22T08:30:47.516Z,29.70
2022-08-22T08:33:54.078Z,30.50
2022-08-22T08:36:56.040Z,30.80
2022-08-22T08:40:00.286Z,30.60
2022-08-22T08:43:27.170Z,30.80
2022-08-22T08:47:06.955Z,31.10
2022-08-22T08:50:30.002Z,32.10
2022-08-22T08:54:01.463Z,32.10
2022-08-22T08:57:11.179Z,32.20
2022-08-22T09:00:53.278Z,32.50
2022-08-22T09:04:16.301Z,32.40
2022-08-22T09:07:35.621Z,31.10
2022-08-22T09:10:43.865Z,32.20
2022-08-22T09:13:57.504Z,32.40
2022-08-22T09:17:09.151Z,32.50
2022-08-22T09:20:30.153Z,32.50
2022-08-22T09:23:35.019Z,32.60
2022-08-22T09:26:50.436Z,31.80
2022-08-22T09:30:02.179Z,32.70
2022-08-22T09:33:14.148Z,33.10
2022-08-22T09:36:26.896Z,33.20
2022-08-22T09:40:06.443Z,32.90
2022-08-22T09:43:22.885Z,33.00
2022-08-22T09:46:53.743Z,33.20
2022-08-22T09:50:13.479Z,33.30
2022-08-22T09:53:46.838Z,33.30
2022-08-22T09:56:58.795Z,33.40
2022-08-22T10:00:13.309Z,33.00
2022-08-22T10:03:28.217Z,33.60
2022-08-22T10:06:45.458Z,33.60
2022-08-22T10:10:00.846Z,33.80
2022-08-22T10:13:17.969Z,34.00
2022-08-22T10:16:27.003Z,33.60
2022-08-22T10:19:50.782Z,33.20
2022-08-22T10:23:21.111Z,33.40
2022-08-22T10:26:44.919Z,33.50
2022-08-22T10:30:05.630Z,33.40
2022-08-22T10:33:29.218Z,33.70
2022-08-22T10:36:35.331Z,33.70
2022-08-22T10:39:57.836Z,33.80
2022-08-22T10:43:29.479Z,33.90
2022-08-22T10:46:44.063Z,33.50
2022-08-22T10:49:53.341Z,34.00
2022-08-22T11:03:51.717Z,33.50
2022-08-22T11:07:03.909Z,32.90
2022-08-22T11:10:44.557Z,32.70
2022-08-22T11:14:15.803Z,33.70
2022-08-22T11:17:31.755Z,33.00
2022-08-22T11:20:41.314Z,33.10
2022-08-22T11:23:58.065Z,32.00
2022-08-22T11:27:08.872Z,31.50
2022-08-22T11:30:25.919Z,31.60
2022-08-22T11:33:46.365Z,32.20
2022-08-22T11:36:57.247Z,31.90
2022-08-22T11:40:15.356Z,31.30
2022-08-22T11:43:36.165Z,31.70
2022-08-22T11:46:45.843Z,32.00
2022-08-22T11:49:57.277Z,32.60
2022-08-22T11:53:22.649Z,32.50
2022-08-22T11:56:43.567Z,32.50
2022-08-22T12:00:08.429Z,32.60
2022-08-22T12:03:33.191Z,32.50
2022-08-22T12:06:40.400Z,32.50
2022-08-22T12:09:48.509Z,32.70
2022-08-22T12:13:17.789Z,32.10
2022-08-22T12:16:27.045Z,31.50
2022-08-22T12:20:34.277Z,31.60
2022-08-22T12:23:50.941Z,31.60
2022-08-22T12:26:59.134Z,31.90
2022-08-22T12:30:28.622Z,32.20
2022-08-22T12:33:48.259Z,32.30
2022-08-22T12:37:05.796Z,32.40
2022-08-22T12:40:32.284Z,32.30
2022-08-22T12:43:58.606Z,32.40
2022-08-22T12:47:09.502Z,32.50
2022-08-22T12:50:42.227Z,32.60
2022-08-22T12:54:06.325Z,32.40
2022-08-22T12:57:25.095Z,32.50
2022-08-22T13:00:43.638Z,32.50
2022-08-22T13:03:50.883Z,32.30
2022-08-22T13:06:56.869Z,32.50
2022-08-22T13:10:36.094Z,32.50
2022-08-22T13:13:43.451Z,32.50
2022-08-22T13:17:10.209Z,32.50
2022-08-22T13:20:49.126Z,32.80
2022-08-22T13:23:57.338Z,32.60
2022-08-22T13:27:07.166Z,32.60
2022-08-22T13:30:17.480Z,32.00
2022-08-22T13:33:33.432Z,32.50
2022-08-22T13:36:51.865Z,32.40
2022-08-22T13:40:00.597Z,32.50
2022-08-22T13:43:13.591Z,32.70
2022-08-22T13:46:25.819Z,32.40
2022-08-22T13:49:37.311Z,32.40
2022-08-22T13:52:49.390Z,32.50
2022-08-22T13:56:15.773Z,32.40
2022-08-22T13:59:52.457Z,32.40
2022-08-22T14:03:15.817Z,32.40
2022-08-22T14:06:37.876Z,32.20
2022-08-22T14:09:57.375Z,32.20
2022-08-22T14:12:59.234Z,32.10
2022-08-22T14:16:04.551Z,32.40
2022-08-22T14:19:14.464Z,32.30
2022-08-22T14:22:23.072Z,32.30
2022-08-22T14:25:38.039Z,32.20
2022-08-22T14:28:44.640Z,32.10
2022-08-22T14:32:18.618Z,32.10
2022-08-22T14:35:40.965Z,32.20
2022-08-22T14:39:10.332Z,32.20
2022-08-22T14:42:21.730Z,32.10
2022-08-22T14:45:33.057Z,32.00
2022-08-22T14:48:58.426Z,32.00
2022-08-22T14:52:29.416Z,32.00
2022-08-22T14:55:32.101Z,32.10
2022-08-22T14:58:49.271Z,32.00
2022-08-22T15:02:03.155Z,32.20
2022-08-22T15:05:21.620Z,32.00
2022-08-22T15:08:32.990Z,31.80
2022-08-22T15:11:37.510Z,31.80
2022-08-22T15:14:52.365Z,31.90
2022-08-22T15:17:55.747Z,31.90
2022-08-22T15:21:02.166Z,32.00
2022-08-22T15:24:12.209Z,31.80
2022-08-22T15:27:19.292Z,31.70
2022-08-22T15:30:50.009Z,31.60
2022-08-22T15:34:08.526Z,31.60
2022-08-22T15:37:20.201Z,31.50
2022-08-22T15:40:45.705Z,31.50
2022-08-22T15:43:52.148Z,31.50
2022-08-22T15:46:58.265Z,31.50
2022-08-22T15:50:08.247Z,31.50
2022-08-22T15:53:45.815Z,31.50
2022-08-22T15:57:17.845Z,31.20
2022-08-22T16:00:28.940Z,31.20
2022-08-22T16:03:36.708Z,31.30
2022-08-22T16:06:50.598Z,31.30
2022-08-22T16:09:56.722Z,31.20
2022-08-22T16:13:29.145Z,31.20
2022-08-22T16:16:53.789Z,31.20
2022-08-22T16:20:19.722Z,31.20
2022-08-22T16:23:22.732Z,31.20
2022-08-22T16:26:30.927Z,31.20
2022-08-22T16:29:41.411Z,31.10
2022-08-22T16:32:53.098Z,31.00
2022-08-22T16:36:35.875Z,31.00
2022-08-22T16:40:14.584Z,30.90
2022-08-22T16:43:18.774Z,30.90
2022-08-22T16:46:44.129Z,30.80
2022-08-22T16:49:54.043Z,30.70
2022-08-22T16:53:12.014Z,30.50
2022-08-22T16:56:20.239Z,30.60
2022-08-22T16:59:28.269Z,30.50
2022-08-22T17:02:50.438Z,30.50
2022-08-22T17:05:58.447Z,30.50
2022-08-22T17:09:09.507Z,30.50
2022-08-22T17:12:30.313Z,30.40
2022-08-22T17:15:44.282Z,30.40
2022-08-22T17:19:02.293Z,30.30
2022-08-22T17:22:24.968Z,30.30
2022-08-22T17:25:56.876Z,30.30
2022-08-22T17:29:15.271Z,30.20
2022-08-22T17:32:32.456Z,30.10
2022-08-22T17:35:49.259Z,30.00
2022-08-22T17:39:29.216Z,29.90
2022-08-22T17:42:41.304Z,29.70
2022-08-22T17:46:01.789Z,29.60
2022-08-22T17:49:36.095Z,29.50
2022-08-22T17:52:59.039Z,29.40
2022-08-22T17:56:05.888Z,29.40
2022-08-22T17:59:22.740Z,29.10
2022-08-22T18:02:31.977Z,29.00
2022-08-22T18:05:46.872Z,29.00
2022-08-22T18:12:25.126Z,28.80
2022-08-22T18:15:47.247Z,28.50
2022-08-22T18:18:57.960Z,28.30
2022-08-22T18:22:20.006Z,28.00
2022-08-22T18:25:41.563Z,28.10
2022-08-22T18:29:12.261Z,27.90
2022-08-22T18:32:21.151Z,27.70
2022-08-22T18:35:39.369Z,27.60
2022-08-22T18:38:57.412Z,27.50
2022-08-22T18:42:44.657Z,27.40
2022-08-22T18:45:46.606Z,27.10
2022-08-22T18:49:11.996Z,27.10
2022-08-22T18:52:40.563Z,26.90
2022-08-22T18:55:51.290Z,26.50
2022-08-22T18:59:05.188Z,26.50
2022-08-22T19:02:11.476Z,26.50
2022-08-22T19:05:34.601Z,26.40
2022-08-22T19:09:13.054Z,26.30
2022-08-22T19:12:31.068Z,26.20
2022-08-22T19:15:39.026Z,26.00
2022-08-22T19:18:51.601Z,25.90
2022-08-22T19:22:15.328Z,25.80
2022-08-22T19:25:28.814Z,25.60
2022-08-22T19:28:37.031Z,25.50
2022-08-22T19:31:39.016Z,25.50
2022-08-22T19:34:47.676Z,25.50
2022-08-22T19:37:57.471Z,25.50
2022-08-22T19:40:59.670Z,25.30
2022-08-22T19:44:01.839Z,25.10
2022-08-22T19:47:16.276Z,25.00
2022-08-22T19:50:18.610Z,25.10
2022-08-22T19:53:36.962Z,25.00
2022-08-22T19:57:18.336Z,25.10
2022-08-22T20:00:22.087Z,25.00
2022-08-22T20:03:24.079Z,25.10
2022-08-22T20:06:48.020Z,25.00
2022-08-22T20:10:09.023Z,24.90
2022-08-22T20:13:22.182Z,24.80
2022-08-22T20:16:59.259Z,24.40
2022-08-22T20:20:18.444Z,24.40
2022-08-22T20:23:28.094Z,24.10
2022-08-22T20:26:30.763Z,24.20
2022-08-22T20:29:35.694Z,24.30
2022-08-22T20:32:43.923Z,24.20
2022-08-22T20:35:56.432Z,24.20
2022-08-22T20:39:05.091Z,24.20
2022-08-22T20:42:12.410Z,24.20
2022-08-22T20:45:22.854Z,24.20
2022-08-22T20:48:39.944Z,24.20
2022-08-22T20:51:51.691Z,24.00
2022-08-22T20:55:07.766Z,24.10
2022-08-22T20:58:24.310Z,23.70
2022-08-22T21:01:27.559Z,23.50
2022-08-22T21:04:56.455Z,23.80
2022-08-22T21:08:05.444Z,23.80
2022-08-22T21:11:08.244Z,23.70
2022-08-22T21:14:25.580Z,23.50
2022-08-22T21:17:34.340Z,23.50
2022-08-22T21:20:39.498Z,23.50
2022-08-22T21:23:45.220Z,23.50
2022-08-22T21:26:59.229Z,23.50
2022-08-22T21:30:05.819Z,23.50
2022-08-22T21:33:23.734Z,23.50
2022-08-22T21:36:29.774Z,23.50
2022-08-22T21:39:36.332Z,23.40
2022-08-22T21:42:41.584Z,23.40
2022-08-22T21:45:44.693Z,23.30
2022-08-22T21:49:24.133Z,23.40
2022-08-22T21:52:27.736Z,23.40
2022-08-22T21:55:45.537Z,23.50
2022-08-22T21:58:47.526Z,23.40
2022-08-22T22:01:49.786Z,23.30
2022-08-22T22:04:51.781Z,23.40
2022-08-22T22:07:54.269Z,23.30
2022-08-22T22:11:02.445Z,23.40
2022-08-22T22:14:07.328Z,23.40
2022-08-22T22:17:09.731Z,23.30
2022-08-22T22:20:13.628Z,23.30
2022-08-22T22:23:17.035Z,23.20
2022-08-22T22:26:19.774Z,23.40
2022-08-22T22:29:22.110Z,23.50
2022-08-22T22:32:24.177Z,23.40
2022-08-22T22:35:26.604Z,23.50
2022-08-22T22:38:28.600Z,23.40
2022-08-22T22:41:32.058Z,23.20
2022-08-22T22:44:36.759Z,23.00
2022-08-22T22:47:38.734Z,22.90
2022-08-22T22:50:40.703Z,22.70
2022-08-22T22:53:43.745Z,22.40
2022-08-22T22:56:47.915Z,22.30
2022-08-22T22:59:50.181Z,22.30
2022-08-22T23:02:53.135Z,22.20
2022-08-22T23:05:55.313Z,22.10
2022-08-22T23:08:58.183Z,22.10
2022-08-22T23:12:00.490Z,22.40
2022-08-22T23:15:03.137Z,22.20
2022-08-22T23:18:05.202Z,22.10
2022-08-22T23:21:14.602Z,22.00
2022-08-22T23:24:17.749Z,22.00
2022-08-22T23:27:19.864Z,22.00
2022-08-22T23:30:22.119Z,21.90
2022-08-22T23:33:25.517Z,22.00
2022-08-22T23:36:27.911Z,21.90
2022-08-22T23:39:31.488Z,22.00
2022-08-22T23:42:33.546Z,22.20
2022-08-22T23:45:35.509Z,22.20
2022-08-22T23:48:37.895Z,22.00
2022-08-22T23:51:45.206Z,22.10
2022-08-22T23:54:48.393Z,22.20
2022-08-22T23:57:58.170Z,22.20
